sensor_id;sensor_type;location;lat;lon;timestamp;pressure;altitude;pressure_sealevel;temperature;humidity
21182;BME280;10749;46.296;7.524;2022-07-06T00:01:39;95388.66;;;23.20;39.82
21182;BME280;10749;46.296;7.524;2022-07-06T00:04:05;95393.00;;;23.21;39.65
21182;BME280;10749;46.296;7.524;2022-07-06T00:06:31;95394.06;;;23.20;40.16
21182;BME280;10749;46.296;7.524;2022-07-06T00:08:57;95394.22;;;23.13;40.05
21182;BME280;10749;46.296;7.524;2022-07-06T00:11:23;95401.59;;;23.18;39.88
21182;BME280;10749;46.296;7.524;2022-07-06T00:13:48;95399.94;;;23.17;40.06
21182;BME280;10749;46.296;7.524;2022-07-06T00:16:14;95395.78;;;23.09;40.24
21182;BME280;10749;46.296;7.524;2022-07-06T00:18:39;95394.94;;;23.09;39.90
21182;BME280;10749;46.296;7.524;2022-07-06T00:21:04;95396.84;;;23.08;40.05
21182;BME280;10749;46.296;7.524;2022-07-06T00:23:30;95391.09;;;23.05;40.35
21182;BME280;10749;46.296;7.524;2022-07-06T00:25:55;95379.66;;;22.97;40.54
21182;BME280;10749;46.296;7.524;2022-07-06T00:28:21;95388.22;;;22.94;40.26
21182;BME280;10749;46.296;7.524;2022-07-06T00:30:46;95391.66;;;22.90;40.07
21182;BME280;10749;46.296;7.524;2022-07-06T00:33:12;95392.72;;;22.89;40.15
21182;BME280;10749;46.296;7.524;2022-07-06T00:35:37;95391.41;;;22.91;40.41
21182;BME280;10749;46.296;7.524;2022-07-06T00:38:02;95408.75;;;22.95;40.69
21182;BME280;10749;46.296;7.524;2022-07-06T00:40:28;95405.63;;;22.87;40.71
21182;BME280;10749;46.296;7.524;2022-07-06T00:42:55;95401.44;;;22.79;40.34
21182;BME280;10749;46.296;7.524;2022-07-06T00:45:20;95401.47;;;22.68;40.60
21182;BME280;10749;46.296;7.524;2022-07-06T00:47:46;95403.16;;;22.69;40.64
21182;BME280;10749;46.296;7.524;2022-07-06T00:50:13;95401.00;;;22.71;40.59
21182;BME280;10749;46.296;7.524;2022-07-06T00:52:45;95412.84;;;22.70;40.53
21182;BME280;10749;46.296;7.524;2022-07-06T00:55:12;95420.94;;;22.70;40.86
21182;BME280;10749;46.296;7.524;2022-07-06T00:57:39;95410.38;;;22.68;40.52
21182;BME280;10749;46.296;7.524;2022-07-06T01:00:07;95415.78;;;22.68;40.95
21182;BME280;10749;46.296;7.524;2022-07-06T01:02:33;95414.13;;;22.67;40.75
21182;BME280;10749;46.296;7.524;2022-07-06T01:05:00;95420.59;;;22.66;40.72
21182;BME280;10749;46.296;7.524;2022-07-06T01:07:25;95420.75;;;22.60;41.03
21182;BME280;10749;46.296;7.524;2022-07-06T01:09:51;95420.84;;;22.53;41.30
21182;BME280;10749;46.296;7.524;2022-07-06T01:12:17;95430.97;;;22.46;41.42
21182;BME280;10749;46.296;7.524;2022-07-06T01:14:42;95424.91;;;22.39;41.59
21182;BME280;10749;46.296;7.524;2022-07-06T01:17:09;95427.00;;;22.37;41.71
21182;BME280;10749;46.296;7.524;2022-07-06T01:19:34;95422.59;;;22.31;42.03
21182;BME280;10749;46.296;7.524;2022-07-06T01:21:59;95419.28;;;22.29;42.12
21182;BME280;10749;46.296;7.524;2022-07-06T01:24:25;95420.81;;;22.25;42.19
21182;BME280;10749;46.296;7.524;2022-07-06T01:26:51;95414.88;;;22.23;41.99
21182;BME280;10749;46.296;7.524;2022-07-06T01:29:17;95428.25;;;22.18;41.99
21182;BME280;10749;46.296;7.524;2022-07-06T01:31:50;95424.50;;;21.95;42.70
21182;BME280;10749;46.296;7.524;2022-07-06T01:34:16;95424.06;;;21.98;42.75
21182;BME280;10749;46.296;7.524;2022-07-06T01:36:42;95416.06;;;22.03;42.72
21182;BME280;10749;46.296;7.524;2022-07-06T01:39:09;95419.84;;;22.02;42.47
21182;BME280;10749;46.296;7.524;2022-07-06T01:41:34;95416.06;;;22.03;42.47
21182;BME280;10749;46.296;7.524;2022-07-06T01:44:00;95411.97;;;22.01;42.42
21182;BME280;10749;46.296;7.524;2022-07-06T01:46:26;95416.69;;;21.94;42.34
21182;BME280;10749;46.296;7.524;2022-07-06T01:48:51;95413.38;;;21.92;42.63
21182;BME280;10749;46.296;7.524;2022-07-06T01:51:16;95410.47;;;21.93;42.47
21182;BME280;10749;46.296;7.524;2022-07-06T01:53:42;95405.06;;;21.93;42.47
21182;BME280;10749;46.296;7.524;2022-07-06T01:56:08;95414.22;;;21.92;42.34
21182;BME280;10749;46.296;7.524;2022-07-06T01:58:34;95416.53;;;21.89;42.46
21182;BME280;10749;46.296;7.524;2022-07-06T02:01:00;95408.09;;;21.85;42.55
21182;BME280;10749;46.296;7.524;2022-07-06T02:03:25;95411.84;;;21.84;42.38
21182;BME280;10749;46.296;7.524;2022-07-06T02:05:51;95410.06;;;21.78;42.59
21182;BME280;10749;46.296;7.524;2022-07-06T02:08:17;95411.16;;;21.77;42.58
21182;BME280;10749;46.296;7.524;2022-07-06T02:10:42;95416.53;;;21.77;42.85
21182;BME280;10749;46.296;7.524;2022-07-06T02:13:07;95415.38;;;21.73;42.62
21182;BME280;10749;46.296;7.524;2022-07-06T02:15:33;95419.25;;;21.66;42.68
21182;BME280;10749;46.296;7.524;2022-07-06T02:17:58;95414.44;;;21.56;43.08
21182;BME280;10749;46.296;7.524;2022-07-06T02:20:23;95417.34;;;21.54;43.00
21182;BME280;10749;46.296;7.524;2022-07-06T02:22:49;95424.84;;;21.52;43.13
21182;BME280;10749;46.296;7.524;2022-07-06T02:25:14;95419.81;;;21.56;43.08
21182;BME280;10749;46.296;7.524;2022-07-06T02:27:39;95415.47;;;21.55;43.02
21182;BME280;10749;46.296;7.524;2022-07-06T02:30:05;95425.69;;;21.53;43.18
21182;BME280;10749;46.296;7.524;2022-07-06T02:32:31;95421.91;;;21.54;43.29
21182;BME280;10749;46.296;7.524;2022-07-06T02:34:56;95427.75;;;21.51;43.64
21182;BME280;10749;46.296;7.524;2022-07-06T02:37:21;95422.16;;;21.41;43.55
21182;BME280;10749;46.296;7.524;2022-07-06T02:39:46;95413.69;;;21.37;43.94
21182;BME280;10749;46.296;7.524;2022-07-06T02:42:12;95409.50;;;21.41;43.59
21182;BME280;10749;46.296;7.524;2022-07-06T02:44:38;95412.56;;;21.45;43.75
21182;BME280;10749;46.296;7.524;2022-07-06T02:47:03;95417.34;;;21.43;43.91
21182;BME280;10749;46.296;7.524;2022-07-06T02:49:28;95412.44;;;21.40;44.05
21182;BME280;10749;46.296;7.524;2022-07-06T02:51:53;95422.94;;;21.30;44.33
21182;BME280;10749;46.296;7.524;2022-07-06T02:54:19;95429.25;;;21.24;44.48
21182;BME280;10749;46.296;7.524;2022-07-06T02:56:44;95435.22;;;21.26;44.53
21182;BME280;10749;46.296;7.524;2022-07-06T02:59:13;95420.25;;;21.30;44.41
21182;BME280;10749;46.296;7.524;2022-07-06T03:01:38;95422.13;;;21.29;44.89
21182;BME280;10749;46.296;7.524;2022-07-06T03:04:03;95426.56;;;21.24;44.92
21182;BME280;10749;46.296;7.524;2022-07-06T03:06:29;95424.72;;;21.24;44.61
21182;BME280;10749;46.296;7.524;2022-07-06T03:08:54;95426.22;;;21.20;44.64
21182;BME280;10749;46.296;7.524;2022-07-06T03:11:19;95426.91;;;21.15;44.63
21182;BME280;10749;46.296;7.524;2022-07-06T03:13:45;95436.47;;;21.11;44.70
21182;BME280;10749;46.296;7.524;2022-07-06T03:16:10;95434.69;;;21.05;45.05
21182;BME280;10749;46.296;7.524;2022-07-06T03:18:35;95431.41;;;21.03;45.28
21182;BME280;10749;46.296;7.524;2022-07-06T03:21:01;95437.22;;;21.00;45.38
21182;BME280;10749;46.296;7.524;2022-07-06T03:23:29;95439.94;;;21.00;45.56
21182;BME280;10749;46.296;7.524;2022-07-06T03:25:55;95432.69;;;21.01;45.47
21182;BME280;10749;46.296;7.524;2022-07-06T03:28:20;95441.91;;;20.93;45.58
21182;BME280;10749;46.296;7.524;2022-07-06T03:30:45;95443.28;;;20.84;46.36
21182;BME280;10749;46.296;7.524;2022-07-06T03:33:11;95442.09;;;20.80;46.36
21182;BME280;10749;46.296;7.524;2022-07-06T03:35:36;95445.44;;;20.76;46.60
21182;BME280;10749;46.296;7.524;2022-07-06T03:38:01;95438.00;;;20.78;45.96
21182;BME280;10749;46.296;7.524;2022-07-06T03:40:28;95448.28;;;20.81;45.94
21182;BME280;10749;46.296;7.524;2022-07-06T03:42:53;95439.19;;;20.82;46.09
21182;BME280;10749;46.296;7.524;2022-07-06T03:45:18;95431.31;;;20.80;46.15
21182;BME280;10749;46.296;7.524;2022-07-06T03:47:43;95441.25;;;20.80;46.25
21182;BME280;10749;46.296;7.524;2022-07-06T03:50:09;95439.25;;;20.75;46.27
21182;BME280;10749;46.296;7.524;2022-07-06T03:52:35;95451.66;;;20.76;46.24
21182;BME280;10749;46.296;7.524;2022-07-06T03:55:05;95448.38;;;20.74;46.41
21182;BME280;10749;46.296;7.524;2022-07-06T03:57:31;95453.78;;;20.74;46.20
21182;BME280;10749;46.296;7.524;2022-07-06T03:59:56;95454.19;;;20.71;46.08
21182;BME280;10749;46.296;7.524;2022-07-06T04:02:21;95448.47;;;20.67;46.24
21182;BME280;10749;46.296;7.524;2022-07-06T04:04:47;95450.31;;;20.67;46.77
21182;BME280;10749;46.296;7.524;2022-07-06T04:07:12;95452.81;;;20.68;46.52
21182;BME280;10749;46.296;7.524;2022-07-06T04:09:38;95454.66;;;20.68;46.70
21182;BME280;10749;46.296;7.524;2022-07-06T04:12:04;95455.59;;;20.62;46.69
21182;BME280;10749;46.296;7.524;2022-07-06T04:14:29;95460.50;;;20.65;46.86
21182;BME280;10749;46.296;7.524;2022-07-06T04:16:54;95465.88;;;20.65;46.66
21182;BME280;10749;46.296;7.524;2022-07-06T04:19:20;95456.38;;;20.62;46.24
21182;BME280;10749;46.296;7.524;2022-07-06T04:21:45;95465.00;;;20.53;46.47
21182;BME280;10749;46.296;7.524;2022-07-06T04:24:10;95465.38;;;20.56;46.93
21182;BME280;10749;46.296;7.524;2022-07-06T04:26:36;95473.66;;;20.55;46.95
21182;BME280;10749;46.296;7.524;2022-07-06T04:29:01;95469.78;;;20.51;47.60
21182;BME280;10749;46.296;7.524;2022-07-06T04:31:26;95467.56;;;20.48;47.54
21182;BME280;10749;46.296;7.524;2022-07-06T04:33:52;95469.78;;;20.51;47.29
21182;BME280;10749;46.296;7.524;2022-07-06T04:36:17;95471.34;;;20.58;47.41
21182;BME280;10749;46.296;7.524;2022-07-06T04:38:42;95480.00;;;20.60;47.32
21182;BME280;10749;46.296;7.524;2022-07-06T04:41:07;95481.50;;;20.56;47.68
21182;BME280;10749;46.296;7.524;2022-07-06T04:43:33;95477.84;;;20.51;47.25
21182;BME280;10749;46.296;7.524;2022-07-06T04:45:58;95473.53;;;20.50;47.82
21182;BME280;10749;46.296;7.524;2022-07-06T04:48:25;95480.47;;;20.57;47.55
21182;BME280;10749;46.296;7.524;2022-07-06T04:50:51;95472.16;;;20.59;47.76
21182;BME280;10749;46.296;7.524;2022-07-06T04:53:16;95474.53;;;20.67;47.58
21182;BME280;10749;46.296;7.524;2022-07-06T04:55:41;95470.34;;;20.71;47.42
21182;BME280;10749;46.296;7.524;2022-07-06T04:58:07;95480.66;;;20.74;47.45
21182;BME280;10749;46.296;7.524;2022-07-06T05:00:32;95482.16;;;20.70;47.64
21182;BME280;10749;46.296;7.524;2022-07-06T05:02:57;95490.16;;;20.77;47.55
21182;BME280;10749;46.296;7.524;2022-07-06T05:05:23;95488.63;;;20.81;47.35
21182;BME280;10749;46.296;7.524;2022-07-06T05:07:48;95491.22;;;20.87;47.19
21182;BME280;10749;46.296;7.524;2022-07-06T05:10:14;95496.25;;;20.84;47.47
21182;BME280;10749;46.296;7.524;2022-07-06T05:12:39;95502.91;;;20.81;47.59
21182;BME280;10749;46.296;7.524;2022-07-06T05:15:06;95499.31;;;20.87;47.68
21182;BME280;10749;46.296;7.524;2022-07-06T05:17:31;95496.19;;;20.90;47.50
21182;BME280;10749;46.296;7.524;2022-07-06T05:19:57;95496.91;;;20.97;47.37
21182;BME280;10749;46.296;7.524;2022-07-06T05:22:23;95497.63;;;21.04;47.28
21182;BME280;10749;46.296;7.524;2022-07-06T05:24:49;95491.34;;;21.10;47.72
21182;BME280;10749;46.296;7.524;2022-07-06T05:27:14;95495.47;;;21.13;47.36
21182;BME280;10749;46.296;7.524;2022-07-06T05:29:40;95502.72;;;21.12;46.77
21182;BME280;10749;46.296;7.524;2022-07-06T05:32:06;95494.84;;;21.11;46.92
21182;BME280;10749;46.296;7.524;2022-07-06T05:34:31;95493.59;;;21.13;46.86
21182;BME280;10749;46.296;7.524;2022-07-06T05:36:57;95491.34;;;21.10;46.87
21182;BME280;10749;46.296;7.524;2022-07-06T05:39:22;95493.41;;;21.08;47.21
21182;BME280;10749;46.296;7.524;2022-07-06T05:41:48;95500.00;;;21.12;46.91
21182;BME280;10749;46.296;7.524;2022-07-06T05:44:14;95495.81;;;21.16;46.80
21182;BME280;10749;46.296;7.524;2022-07-06T05:46:40;95499.25;;;21.24;46.99
21182;BME280;10749;46.296;7.524;2022-07-06T05:49:05;95493.41;;;21.27;47.21
21182;BME280;10749;46.296;7.524;2022-07-06T05:51:49;95495.63;;;21.30;47.26
21182;BME280;10749;46.296;7.524;2022-07-06T05:54:15;95496.72;;;21.40;46.90
21182;BME280;10749;46.296;7.524;2022-07-06T05:56:40;95496.97;;;21.50;47.05
21182;BME280;10749;46.296;7.524;2022-07-06T05:59:06;95491.03;;;21.60;46.83
21182;BME280;10749;46.296;7.524;2022-07-06T06:01:31;95495.25;;;21.68;46.96
21182;BME280;10749;46.296;7.524;2022-07-06T06:03:57;95488.44;;;21.65;46.90
21182;BME280;10749;46.296;7.524;2022-07-06T06:06:24;95495.09;;;21.62;46.83
21182;BME280;10749;46.296;7.524;2022-07-06T06:08:49;95499.66;;;21.62;47.22
21182;BME280;10749;46.296;7.524;2022-07-06T06:11:15;95488.44;;;21.65;47.10
21182;BME280;10749;46.296;7.524;2022-07-06T06:13:40;95486.59;;;21.77;46.68
21182;BME280;10749;46.296;7.524;2022-07-06T06:16:05;95493.03;;;21.88;46.51
21182;BME280;10749;46.296;7.524;2022-07-06T06:18:31;95493.19;;;21.93;46.43
21182;BME280;10749;46.296;7.524;2022-07-06T06:20:56;95487.97;;;21.91;46.53
21182;BME280;10749;46.296;7.524;2022-07-06T06:23:21;95490.09;;;21.89;46.02
21182;BME280;10749;46.296;7.524;2022-07-06T06:25:47;95484.25;;;22.04;46.08
21182;BME280;10749;46.296;7.524;2022-07-06T06:28:12;95488.59;;;22.17;46.28
21182;BME280;10749;46.296;7.524;2022-07-06T06:30:38;95480.63;;;22.22;46.12
21182;BME280;10749;46.296;7.524;2022-07-06T06:33:07;95484.97;;;22.23;46.01
21182;BME280;10749;46.296;7.524;2022-07-06T06:35:32;95487.66;;;22.23;45.68
21182;BME280;10749;46.296;7.524;2022-07-06T06:37:58;95483.31;;;22.22;45.83
21182;BME280;10749;46.296;7.524;2022-07-06T06:40:23;95481.22;;;22.24;45.69
21182;BME280;10749;46.296;7.524;2022-07-06T06:42:48;95484.59;;;22.31;45.61
21182;BME280;10749;46.296;7.524;2022-07-06T06:45:14;95486.34;;;22.37;45.61
21182;BME280;10749;46.296;7.524;2022-07-06T06:47:39;95486.78;;;22.45;45.63
21182;BME280;10749;46.296;7.524;2022-07-06T06:50:05;95486.91;;;22.50;45.48
21182;BME280;10749;46.296;7.524;2022-07-06T06:52:30;95482.34;;;22.51;45.43
21182;BME280;10749;46.296;7.524;2022-07-06T06:54:55;95479.88;;;22.49;45.57
21182;BME280;10749;46.296;7.524;2022-07-06T06:57:20;95473.19;;;22.52;45.50
21182;BME280;10749;46.296;7.524;2022-07-06T06:59:46;95469.53;;;22.58;45.35
21182;BME280;10749;46.296;7.524;2022-07-06T07:02:11;95465.19;;;22.57;45.13
21182;BME280;10749;46.296;7.524;2022-07-06T07:04:36;95468.00;;;22.62;45.21
21182;BME280;10749;46.296;7.524;2022-07-06T07:07:02;95467.03;;;22.68;45.06
21182;BME280;10749;46.296;7.524;2022-07-06T07:09:27;95464.25;;;22.63;44.73
21182;BME280;10749;46.296;7.524;2022-07-06T07:11:53;95465.63;;;22.66;44.76
21182;BME280;10749;46.296;7.524;2022-07-06T07:14:18;95463.31;;;22.69;45.07
21182;BME280;10749;46.296;7.524;2022-07-06T07:16:43;95461.88;;;22.78;44.72
21182;BME280;10749;46.296;7.524;2022-07-06T07:19:09;95472.03;;;22.88;44.89
21182;BME280;10749;46.296;7.524;2022-07-06T07:21:34;95462.25;;;22.98;44.90
21182;BME280;10749;46.296;7.524;2022-07-06T07:23:59;95469.41;;;23.05;44.98
21182;BME280;10749;46.296;7.524;2022-07-06T07:26:24;95462.53;;;23.14;44.99
21182;BME280;10749;46.296;7.524;2022-07-06T07:28:50;95462.66;;;23.19;44.38
21182;BME280;10749;46.296;7.524;2022-07-06T07:31:15;95461.31;;;23.21;44.54
21182;BME280;10749;46.296;7.524;2022-07-06T07:33:41;95458.63;;;23.21;44.37
21182;BME280;10749;46.296;7.524;2022-07-06T07:36:06;95453.00;;;23.23;44.28
21182;BME280;10749;46.296;7.524;2022-07-06T07:38:32;95457.41;;;23.29;44.19
21182;BME280;10749;46.296;7.524;2022-07-06T07:40:57;95451.03;;;23.35;43.78
21182;BME280;10749;46.296;7.524;2022-07-06T07:43:22;95454.63;;;23.40;43.89
21182;BME280;10749;46.296;7.524;2022-07-06T07:45:48;95450.72;;;23.48;43.87
21182;BME280;10749;46.296;7.524;2022-07-06T07:48:14;95453.06;;;23.56;43.94
21182;BME280;10749;46.296;7.524;2022-07-06T07:50:40;95450.91;;;23.58;43.76
21182;BME280;10749;46.296;7.524;2022-07-06T07:53:06;95442.06;;;23.63;43.82
21182;BME280;10749;46.296;7.524;2022-07-06T07:55:31;95449.44;;;23.67;43.54
21182;BME280;10749;46.296;7.524;2022-07-06T07:57:56;95448.44;;;23.73;43.95
21182;BME280;10749;46.296;7.524;2022-07-06T08:00:22;95439.13;;;23.81;43.46
21182;BME280;10749;46.296;7.524;2022-07-06T08:02:47;95437.56;;;23.85;43.64
21182;BME280;10749;46.296;7.524;2022-07-06T08:05:13;95430.84;;;23.87;43.34
21182;BME280;10749;46.296;7.524;2022-07-06T08:07:41;95436.31;;;23.92;43.45
21182;BME280;10749;46.296;7.524;2022-07-06T08:10:08;95432.22;;;23.90;43.05
21182;BME280;10749;46.296;7.524;2022-07-06T08:12:33;95428.28;;;23.98;43.27
21182;BME280;10749;46.296;7.524;2022-07-06T08:14:58;95419.75;;;24.06;43.33
21182;BME280;10749;46.296;7.524;2022-07-06T08:17:24;95420.88;;;24.10;43.02
21182;BME280;10749;46.296;7.524;2022-07-06T08:19:49;95418.94;;;24.05;42.42
21182;BME280;10749;46.296;7.524;2022-07-06T08:22:15;95414.91;;;24.08;42.71
21182;BME280;10749;46.296;7.524;2022-07-06T08:24:40;95427.44;;;24.14;42.83
21182;BME280;10749;46.296;7.524;2022-07-06T08:27:05;95420.63;;;24.11;42.36
21182;BME280;10749;46.296;7.524;2022-07-06T08:29:31;95414.50;;;24.16;42.59
21182;BME280;10749;46.296;7.524;2022-07-06T08:31:56;95412.41;;;24.23;42.60
21182;BME280;10749;46.296;7.524;2022-07-06T08:34:22;95413.31;;;24.28;42.47
21182;BME280;10749;46.296;7.524;2022-07-06T08:36:47;95409.84;;;24.33;42.57
21182;BME280;10749;46.296;7.524;2022-07-06T08:39:13;95399.66;;;24.40;42.38
21182;BME280;10749;46.296;7.524;2022-07-06T08:41:41;95395.38;;;24.44;42.55
21182;BME280;10749;46.296;7.524;2022-07-06T08:44:06;95392.19;;;24.47;42.42
21182;BME280;10749;46.296;7.524;2022-07-06T08:46:32;95390.59;;;24.51;42.26
21182;BME280;10749;46.296;7.524;2022-07-06T08:48:58;95381.97;;;24.54;41.95
21182;BME280;10749;46.296;7.524;2022-07-06T08:51:26;95382.88;;;24.60;42.22
21182;BME280;10749;46.296;7.524;2022-07-06T08:53:53;95375.59;;;24.65;42.06
21182;BME280;10749;46.296;7.524;2022-07-06T08:56:19;95376.72;;;24.69;42.12
21182;BME280;10749;46.296;7.524;2022-07-06T08:58:45;95375.59;;;24.65;41.92
21182;BME280;10749;46.296;7.524;2022-07-06T09:01:10;95376.72;;;24.69;41.98
21182;BME280;10749;46.296;7.524;2022-07-06T09:03:36;95375.41;;;24.72;41.97
21182;BME280;10749;46.296;7.524;2022-07-06T09:06:04;95370.59;;;24.79;42.15
21182;BME280;10749;46.296;7.524;2022-07-06T09:08:32;95370.59;;;24.79;41.95
21182;BME280;10749;46.296;7.524;2022-07-06T09:10:58;95367.97;;;24.84;41.77
21182;BME280;10749;46.296;7.524;2022-07-06T09:13:23;95363.13;;;24.86;41.98
21182;BME280;10749;46.296;7.524;2022-07-06T09:15:48;95368.59;;;24.91;41.67
21182;BME280;10749;46.296;7.524;2022-07-06T09:18:14;95356.72;;;24.97;41.82
21182;BME280;10749;46.296;7.524;2022-07-06T09:20:41;95360.22;;;24.93;41.40
21182;BME280;10749;46.296;7.524;2022-07-06T09:23:06;95352.66;;;24.95;41.41
21182;BME280;10749;46.296;7.524;2022-07-06T09:25:33;95352.75;;;25.05;41.79
21182;BME280;10749;46.296;7.524;2022-07-06T09:27:59;95350.59;;;25.07;41.43
21182;BME280;10749;46.296;7.524;2022-07-06T09:30:26;95338.13;;;25.06;41.52
21182;BME280;10749;46.296;7.524;2022-07-06T09:32:53;95341.16;;;25.14;41.46
21182;BME280;10749;46.296;7.524;2022-07-06T09:35:26;95338.31;;;25.26;41.48
21182;BME280;10749;46.296;7.524;2022-07-06T09:38:13;95330.00;;;25.38;41.51
21182;BME280;10749;46.296;7.524;2022-07-06T09:40:44;95333.53;;;25.43;41.51
21182;BME280;10749;46.296;7.524;2022-07-06T09:43:29;95324.38;;;25.49;41.35
21182;BME280;10749;46.296;7.524;2022-07-06T09:45:57;95338.47;;;25.51;41.18
21182;BME280;10749;46.296;7.524;2022-07-06T09:48:24;95329.88;;;25.54;41.18
21182;BME280;10749;46.296;7.524;2022-07-06T09:50:52;95329.63;;;25.61;41.13
21182;BME280;10749;46.296;7.524;2022-07-06T09:53:19;95327.16;;;25.59;40.88
21182;BME280;10749;46.296;7.524;2022-07-06T09:55:50;95317.44;;;25.63;40.94
21182;BME280;10749;46.296;7.524;2022-07-06T09:58:16;95329.72;;;25.71;40.99
21182;BME280;10749;46.296;7.524;2022-07-06T10:00:45;95321.03;;;25.74;40.83
21182;BME280;10749;46.296;7.524;2022-07-06T10:03:11;95319.13;;;25.69;40.42
21182;BME280;10749;46.296;7.524;2022-07-06T10:05:38;95313.97;;;25.73;40.43
21182;BME280;10749;46.296;7.524;2022-07-06T10:08:05;95320.50;;;25.77;39.97
21182;BME280;10749;46.296;7.524;2022-07-06T10:10:32;95318.63;;;25.78;39.78
21182;BME280;10749;46.296;7.524;2022-07-06T10:12:58;95321.91;;;25.80;39.74
21182;BME280;10749;46.296;7.524;2022-07-06T10:15:26;95314.59;;;25.85;39.46
21182;BME280;10749;46.296;7.524;2022-07-06T10:17:51;95312.72;;;25.91;39.06
21182;BME280;10749;46.296;7.524;2022-07-06T10:20:21;95303.53;;;25.92;39.64
21182;BME280;10749;46.296;7.524;2022-07-06T10:22:50;95298.41;;;26.00;39.46
21182;BME280;10749;46.296;7.524;2022-07-06T10:25:16;95298.16;;;26.07;39.93
21182;BME280;10749;46.296;7.524;2022-07-06T10:27:43;95297.38;;;26.11;39.56
21182;BME280;10749;46.296;7.524;2022-07-06T10:30:09;95297.09;;;26.18;39.40
21182;BME280;10749;46.296;7.524;2022-07-06T10:32:37;95291.19;;;26.21;39.56
21182;BME280;10749;46.296;7.524;2022-07-06T10:35:03;95287.16;;;26.29;39.23
21182;BME280;10749;46.296;7.524;2022-07-06T10:37:29;95289.06;;;26.38;39.27
21182;BME280;10749;46.296;7.524;2022-07-06T10:39:54;95283.09;;;26.46;38.87
21182;BME280;10749;46.296;7.524;2022-07-06T10:42:45;95286.66;;;26.52;39.33
21182;BME280;10749;46.296;7.524;2022-07-06T10:45:13;95282.06;;;26.62;39.04
21182;BME280;10749;46.296;7.524;2022-07-06T10:47:42;95274.75;;;26.58;38.04
21182;BME280;10749;46.296;7.524;2022-07-06T10:50:08;95269.31;;;26.68;38.77
21182;BME280;10749;46.296;7.524;2022-07-06T10:52:50;95265.81;;;26.83;38.82
21182;BME280;10749;46.296;7.524;2022-07-06T10:57:56;95263.13;;;27.08;38.64
21182;BME280;10749;46.296;7.524;2022-07-06T11:00:21;95263.66;;;27.15;38.32
21182;BME280;10749;46.296;7.524;2022-07-06T11:02:47;95265.28;;;27.21;38.28
21182;BME280;10749;46.296;7.524;2022-07-06T11:05:42;95256.03;;;27.32;37.97
21182;BME280;10749;46.296;7.524;2022-07-06T11:08:10;95255.75;;;27.39;38.11
21182;BME280;10749;46.296;7.524;2022-07-06T11:10:48;95258.19;;;27.56;38.66
21182;BME280;10749;46.296;7.524;2022-07-06T11:13:27;95250.53;;;27.63;38.17
21182;BME280;10749;46.296;7.524;2022-07-06T11:16:00;95247.56;;;27.69;37.82
21182;BME280;10749;46.296;7.524;2022-07-06T11:18:26;95247.25;;;27.76;37.64
21182;BME280;10749;46.296;7.524;2022-07-06T11:21:14;95249.41;;;27.84;37.96
21182;BME280;10749;46.296;7.524;2022-07-06T11:23:40;95252.09;;;27.89;37.23
21182;BME280;10749;46.296;7.524;2022-07-06T11:26:05;95232.81;;;27.90;37.66
21182;BME280;10749;46.296;7.524;2022-07-06T11:28:31;95238.47;;;27.99;37.08
21182;BME280;10749;46.296;7.524;2022-07-06T11:30:57;95229.44;;;28.09;37.44
21182;BME280;10749;46.296;7.524;2022-07-06T11:33:29;95224.84;;;28.09;36.91
21182;BME280;10749;46.296;7.524;2022-07-06T11:36:20;95230.00;;;28.16;37.15
21182;BME280;10749;46.296;7.524;2022-07-06T11:38:48;95225.06;;;28.23;36.87
21182;BME280;10749;46.296;7.524;2022-07-06T11:41:16;95208.66;;;28.33;37.18
21182;BME280;10749;46.296;7.524;2022-07-06T11:43:43;95209.72;;;28.37;36.03
21182;BME280;10749;46.296;7.524;2022-07-06T11:46:23;95212.66;;;28.45;36.74
21182;BME280;10749;46.296;7.524;2022-07-06T11:48:51;95204.44;;;28.51;36.39
21182;BME280;10749;46.296;7.524;2022-07-06T11:51:17;95204.94;;;28.58;36.35
21182;BME280;10749;46.296;7.524;2022-07-06T11:53:47;95201.13;;;28.59;36.18
21182;BME280;10749;46.296;7.524;2022-07-06T11:56:17;95194.56;;;28.70;36.25
21182;BME280;10749;46.296;7.524;2022-07-06T11:58:49;95185.47;;;28.79;36.08
21182;BME280;10749;46.296;7.524;2022-07-06T12:01:15;95183.50;;;28.90;36.20
21182;BME280;10749;46.296;7.524;2022-07-06T12:03:42;95171.25;;;28.87;34.50
21182;BME280;10749;46.296;7.524;2022-07-06T12:06:27;95181.25;;;28.97;34.57
21182;BME280;10749;46.296;7.524;2022-07-06T12:08:56;95169.75;;;29.00;34.78
21182;BME280;10749;46.296;7.524;2022-07-06T12:11:24;95167.47;;;29.12;35.00
21182;BME280;10749;46.296;7.524;2022-07-06T12:13:52;95170.38;;;29.21;34.32
21182;BME280;10749;46.296;7.524;2022-07-06T12:16:18;95161.88;;;29.27;34.69
21182;BME280;10749;46.296;7.524;2022-07-06T12:18:45;95162.88;;;29.37;34.03
21182;BME280;10749;46.296;7.524;2022-07-06T12:21:14;95150.59;;;29.39;33.36
21182;BME280;10749;46.296;7.524;2022-07-06T12:23:47;95143.63;;;29.52;34.16
21182;BME280;10749;46.296;7.524;2022-07-06T12:26:20;95153.47;;;29.71;34.09
21182;BME280;10749;46.296;7.524;2022-07-06T12:29:02;95144.34;;;29.81;33.50
21182;BME280;10749;46.296;7.524;2022-07-06T12:31:42;95140.22;;;29.84;33.43
21182;BME280;10749;46.296;7.524;2022-07-06T12:34:15;95142.09;;;29.88;33.13
21182;BME280;10749;46.296;7.524;2022-07-06T12:36:54;95140.41;;;29.92;32.77
21182;BME280;10749;46.296;7.524;2022-07-06T12:39:22;95139.31;;;29.93;31.59
21182;BME280;10749;46.296;7.524;2022-07-06T12:41:50;95127.38;;;29.89;31.87
21182;BME280;10749;46.296;7.524;2022-07-06T12:44:23;95122.56;;;30.00;32.11
21182;BME280;10749;46.296;7.524;2022-07-06T12:46:51;95121.47;;;30.01;31.89
21182;BME280;10749;46.296;7.524;2022-07-06T12:49:26;95109.06;;;30.08;31.58
21182;BME280;10749;46.296;7.524;2022-07-06T12:54:27;95118.66;;;30.24;31.18
21182;BME280;10749;46.296;7.524;2022-07-06T12:56:57;95110.91;;;30.32;30.93
21182;BME280;10749;46.296;7.524;2022-07-06T12:59:23;95116.50;;;30.40;30.61
21182;BME280;10749;46.296;7.524;2022-07-06T13:01:48;95106.06;;;30.47;31.00
21182;BME280;10749;46.296;7.524;2022-07-06T13:04:16;95113.78;;;30.59;30.89